createdAt,value
2017-03-10T00:01:12.276Z,11.52
2017-03-10T00:02:26.209Z,11.53
2017-03-10T00:03:39.733Z,11.55
2017-03-10T00:04:53.654Z,11.58
2017-03-10T00:06:07.190Z,11.62
2017-03-10T00:07:20.698Z,11.62
2017-03-10T00:08:35.554Z,11.62
2017-03-10T00:09:50.997Z,11.63
2017-03-10T00:11:04.798Z,11.65
2017-03-10T00:12:18.233Z,11.66
2017-03-10T00:13:32.357Z,11.68
2017-03-10T00:14:50.488Z,11.7
2017-03-10T00:16:04.051Z,11.71
2017-03-10T00:17:17.674Z,11.7
2017-03-10T00:18:31.226Z,11.68
2017-03-10T00:19:45.071Z,11.67
2017-03-10T00:20:58.677Z,11.65
2017-03-10T00:22:12.549Z,11.62
2017-03-10T00:23:26.027Z,11.62
2017-03-10T00:24:40.311Z,11.62
2017-03-10T00:25:53.949Z,11.64
2017-03-10T00:27:07.835Z,11.65
2017-03-10T00:28:21.344Z,11.65
2017-03-10T00:29:34.760Z,11.66
2017-03-10T00:30:48.627Z,11.65
2017-03-10T00:32:02.570Z,11.64
2017-03-10T00:33:16.146Z,11.6
2017-03-10T00:34:29.575Z,11.57
2017-03-10T00:35:43.045Z,11.56
2017-03-10T00:36:56.566Z,11.52
2017-03-10T00:38:10.006Z,11.44
2017-03-10T00:39:23.907Z,11.32
2017-03-10T00:40:37.391Z,11.26
2017-03-10T00:41:50.846Z,11.19
2017-03-10T00:43:05.445Z,11.11
2017-03-10T00:44:18.913Z,11.06
2017-03-10T00:45:32.749Z,10.98
2017-03-10T00:46:46.194Z,10.89
2017-03-10T00:47:59.842Z,10.82
2017-03-10T00:49:13.719Z,10.71
2017-03-10T00:50:27.738Z,10.65
2017-03-10T00:51:41.189Z,10.61
2017-03-10T00:52:54.919Z,10.59
2017-03-10T00:54:08.414Z,10.59
2017-03-10T00:55:22.300Z,10.56
2017-03-10T00:56:35.772Z,10.48
2017-03-10T00:57:49.188Z,10.42
2017-03-10T00:59:02.922Z,10.38
2017-03-10T01:00:16.378Z,10.34
2017-03-10T01:01:29.853Z,10.32
2017-03-10T01:02:43.404Z,10.3
2017-03-10T01:03:57.310Z,10.27
2017-03-10T01:05:10.735Z,10.22
2017-03-10T01:06:24.305Z,10.18
2017-03-10T01:07:38.287Z,10.14
2017-03-10T01:08:52.729Z,10.11
2017-03-10T01:10:06.157Z,10.09
2017-03-10T01:11:19.595Z,10.09
2017-03-10T01:12:33.059Z,10.06
2017-03-10T01:13:46.518Z,10
2017-03-10T01:15:00.073Z,9.97
2017-03-10T01:16:16.104Z,9.97
2017-03-10T01:17:29.558Z,9.96
2017-03-10T01:18:43.035Z,9.96
2017-03-10T01:20:00.264Z,9.95
2017-03-10T01:21:20.895Z,9.94
2017-03-10T01:22:40.762Z,9.95
2017-03-10T01:24:02.226Z,9.94
2017-03-10T01:25:23.975Z,9.92
2017-03-10T01:26:45.504Z,9.89
2017-03-10T01:28:06.896Z,9.88
2017-03-10T01:29:26.520Z,9.87
2017-03-10T01:30:46.258Z,9.88
2017-03-10T01:32:06.103Z,9.89
2017-03-10T01:33:23.767Z,9.9
2017-03-10T01:34:41.741Z,9.92
2017-03-10T01:35:59.097Z,9.97
2017-03-10T01:37:12.545Z,10
2017-03-10T01:38:25.972Z,10.02
2017-03-10T01:39:39.666Z,10.01
2017-03-10T01:40:53.750Z,10.02
2017-03-10T01:42:07.607Z,10.03
2017-03-10T01:43:21.087Z,10.06
2017-03-10T01:44:35.234Z,10.1
2017-03-10T01:45:48.789Z,10.13
2017-03-10T01:47:02.294Z,10.16
2017-03-10T01:48:15.794Z,10.2
2017-03-10T01:49:30.161Z,10.22
2017-03-10T01:50:44.144Z,10.26
2017-03-10T01:51:57.650Z,10.3
2017-03-10T01:53:11.244Z,10.33
2017-03-10T01:54:25.174Z,10.39
2017-03-10T01:55:38.746Z,10.41
2017-03-10T01:56:52.556Z,10.44
2017-03-10T01:58:06.468Z,10.46
2017-03-10T01:59:19.945Z,10.49
2017-03-10T02:00:33.861Z,10.51
2017-03-10T02:01:47.478Z,10.53
2017-03-10T02:03:01.699Z,10.55
2017-03-10T02:04:15.279Z,10.56
2017-03-10T02:05:28.742Z,10.55
2017-03-10T02:06:42.335Z,10.54
2017-03-10T02:07:55.814Z,10.49
2017-03-10T02:09:10.153Z,10.43
2017-03-10T02:10:25.286Z,10.35
2017-03-10T02:11:39.215Z,10.3
2017-03-10T02:12:53.133Z,10.28
2017-03-10T02:14:06.626Z,10.26
2017-03-10T02:15:20.836Z,10.23
2017-03-10T02:16:34.706Z,10.21
2017-03-10T02:17:48.188Z,10.15
2017-03-10T02:19:01.612Z,10.13
2017-03-10T02:20:15.062Z,10.09
2017-03-10T02:21:28.474Z,10.07
2017-03-10T02:22:41.944Z,10.07
2017-03-10T02:23:56.266Z,10.06
2017-03-10T02:25:09.681Z,10.04
2017-03-10T02:26:23.123Z,10.03
2017-03-10T02:27:36.658Z,10.01
2017-03-10T02:28:50.091Z,10.03
2017-03-10T02:30:03.687Z,10.04
2017-03-10T02:31:17.116Z,10.07
2017-03-10T02:32:31.752Z,10.08
2017-03-10T02:33:47.451Z,10.09
2017-03-10T02:35:01.053Z,10.11
2017-03-10T02:36:14.472Z,10.16
2017-03-10T02:37:27.997Z,10.16
2017-03-10T02:38:41.549Z,10.16
2017-03-10T02:39:55.022Z,10.14
2017-03-10T02:41:08.912Z,10.1
2017-03-10T02:42:22.324Z,10.07
2017-03-10T02:43:35.800Z,10.05
2017-03-10T02:44:49.311Z,10.04
2017-03-10T02:46:03.178Z,10.05
2017-03-10T02:47:16.630Z,10.08
2017-03-10T02:48:30.506Z,10.09
2017-03-10T02:49:44.017Z,10.09
2017-03-10T02:50:57.451Z,10.11
2017-03-10T02:52:11.220Z,10.14
2017-03-10T02:53:24.673Z,10.16
2017-03-10T02:54:38.901Z,10.19
2017-03-10T02:55:53.334Z,10.2
2017-03-10T02:57:06.763Z,10.2
2017-03-10T02:58:20.568Z,10.21
2017-03-10T02:59:34.083Z,10.23
2017-03-10T03:00:47.969Z,10.25
2017-03-10T03:02:01.954Z,10.27
2017-03-10T03:03:15.874Z,10.29
2017-03-10T03:04:29.747Z,10.3
2017-03-10T03:05:43.256Z,10.29
2017-03-10T03:06:56.753Z,10.29
2017-03-10T03:08:10.239Z,10.28
2017-03-10T03:09:23.713Z,10.29
2017-03-10T03:10:38.220Z,10.28
2017-03-10T03:11:51.771Z,10.26
2017-03-10T03:13:05.230Z,10.23
2017-03-10T03:14:18.859Z,10.2
2017-03-10T03:15:32.798Z,10.16
2017-03-10T03:16:46.300Z,10.12
2017-03-10T03:17:59.767Z,10.01
2017-03-10T03:19:13.216Z,9.94
2017-03-10T03:20:27.903Z,9.9
2017-03-10T03:21:41.903Z,9.87
2017-03-10T03:22:55.800Z,9.86
2017-03-10T03:24:09.285Z,9.82
2017-03-10T03:25:22.760Z,9.82
2017-03-10T03:26:36.314Z,9.82
2017-03-10T03:27:50.639Z,9.79
2017-03-10T03:29:04.756Z,9.79
2017-03-10T03:30:18.694Z,9.75
2017-03-10T03:31:32.765Z,9.73
2017-03-10T03:32:46.254Z,9.71
2017-03-10T03:34:00.175Z,9.69
2017-03-10T03:35:13.883Z,9.63
2017-03-10T03:36:27.350Z,9.58
2017-03-10T03:37:41.104Z,9.53
2017-03-10T03:38:54.602Z,9.49
2017-03-10T03:40:08.086Z,9.44
2017-03-10T03:41:22.044Z,9.36
2017-03-10T03:42:36.270Z,9.28
2017-03-10T03:43:49.765Z,9.24
2017-03-10T03:45:03.799Z,9.22
2017-03-10T03:46:17.329Z,9.2
2017-03-10T03:47:46.278Z,9.18
2017-03-10T03:49:00.024Z,9.12
2017-03-10T03:50:16.070Z,9.13
2017-03-10T03:51:30.029Z,9.12
2017-03-10T03:52:45.307Z,9.12
2017-03-10T03:53:59.226Z,9.11
2017-03-10T03:55:13.210Z,9.1
2017-03-10T03:56:26.668Z,9.08
2017-03-10T03:57:40.136Z,9.06
2017-03-10T03:58:54.062Z,9.06
2017-03-10T04:00:07.945Z,9.07
2017-03-10T04:01:21.543Z,9.08
2017-03-10T04:02:36.179Z,9.09
2017-03-10T04:03:49.704Z,9.09
2017-03-10T04:05:03.490Z,9.05
2017-03-10T04:06:17.453Z,9.04
2017-03-10T04:07:30.874Z,9.03
2017-03-10T04:08:44.861Z,9.01
2017-03-10T04:09:58.443Z,9
2017-03-10T04:11:11.935Z,9
2017-03-10T04:12:25.482Z,9
2017-03-10T04:13:38.998Z,9.01
2017-03-10T04:14:52.884Z,9
2017-03-10T04:16:06.417Z,8.98
2017-03-10T04:17:20.264Z,8.98
2017-03-10T04:18:34.462Z,8.97
2017-03-10T04:19:48.084Z,8.95
2017-03-10T04:21:01.575Z,8.96
2017-03-10T04:22:15.448Z,8.97
2017-03-10T04:26:28.654Z,8.99
2017-03-10T04:27:42.118Z,9.01
2017-03-10T04:28:56.014Z,9.03
2017-03-10T04:30:09.884Z,9.05
2017-03-10T04:31:24.138Z,9.06
2017-03-10T04:32:38.047Z,9.08
2017-03-10T04:33:52.202Z,9.1
2017-03-10T04:35:05.658Z,9.13
2017-03-10T04:36:19.537Z,9.16
2017-03-10T04:37:33.105Z,9.21
2017-03-10T04:38:47.011Z,9.25
2017-03-10T04:40:00.649Z,9.31
2017-03-10T04:41:14.205Z,9.35
2017-03-10T04:42:27.923Z,9.36
2017-03-10T04:43:41.351Z,9.39
2017-03-10T04:44:55.666Z,9.43
2017-03-10T04:46:09.560Z,9.44
2017-03-10T04:47:23.465Z,9.49
2017-03-10T04:48:36.883Z,9.51
2017-03-10T04:49:50.826Z,9.53
2017-03-10T04:51:04.436Z,9.54
2017-03-10T04:52:17.928Z,9.58
2017-03-10T04:53:31.580Z,9.6
2017-03-10T04:54:45.044Z,9.62
2017-03-10T04:55:58.549Z,9.62
2017-03-10T04:57:12.064Z,9.63
2017-03-10T04:58:25.533Z,9.62
2017-03-10T04:59:40.173Z,9.61
2017-03-10T05:00:53.768Z,9.6
2017-03-10T05:02:07.259Z,9.59
2017-03-10T05:03:23.277Z,9.58
2017-03-10T05:04:43.500Z,9.56
2017-03-10T05:06:00.894Z,9.55
2017-03-10T05:07:14.533Z,9.55
2017-03-10T05:08:32.818Z,9.55
2017-03-10T05:09:47.897Z,9.53
2017-03-10T05:11:02.236Z,9.46
2017-03-10T05:12:16.876Z,9.41
2017-03-10T05:13:31.145Z,9.36
2017-03-10T05:14:44.580Z,9.34
2017-03-10T05:15:58.031Z,9.3
2017-03-10T05:17:11.512Z,9.26
2017-03-10T05:18:25.017Z,9.25
2017-03-10T05:19:39.011Z,9.24
2017-03-10T05:20:52.464Z,9.23
2017-03-10T05:22:05.888Z,9.22
2017-03-10T05:23:19.938Z,9.2
2017-03-10T05:24:33.886Z,9.16
2017-03-10T05:25:47.864Z,9.1
2017-03-10T05:27:01.329Z,9.04
2017-03-10T05:28:14.767Z,8.99
2017-03-10T05:29:28.533Z,8.94
2017-03-10T05:30:42.059Z,8.88
2017-03-10T05:31:55.527Z,8.85
2017-03-10T05:33:09.221Z,8.85
2017-03-10T05:34:22.641Z,8.86
2017-03-10T05:35:36.605Z,8.88
2017-03-10T05:36:50.795Z,8.89
2017-03-10T05:38:04.719Z,8.91
2017-03-10T05:39:21.646Z,8.91
2017-03-10T05:40:41.395Z,8.91
2017-03-10T05:41:56.324Z,8.89
2017-03-10T05:43:11.320Z,8.86
2017-03-10T05:44:25.310Z,8.85
2017-03-10T05:45:39.705Z,8.82
2017-03-10T05:46:53.634Z,8.77
2017-03-10T05:48:07.698Z,8.76
2017-03-10T05:49:21.380Z,8.77
2017-03-10T05:50:34.905Z,8.81
2017-03-10T05:51:48.404Z,8.83
2017-03-10T05:53:02.282Z,8.86
2017-03-10T05:54:15.781Z,8.88
2017-03-10T05:55:29.358Z,8.89
2017-03-10T05:56:42.921Z,8.9
2017-03-10T05:57:56.799Z,8.89
2017-03-10T05:59:10.281Z,8.9
2017-03-10T06:00:23.743Z,8.88
2017-03-10T06:01:37.565Z,8.89
2017-03-10T06:02:51.472Z,8.9
2017-03-10T06:04:05.512Z,8.92
2017-03-10T06:07:19.317Z,8.99
2017-03-10T06:09:11.555Z,8.98
2017-03-10T06:10:25.481Z,8.97
2017-03-10T06:11:39.131Z,8.97
2017-03-10T06:15:42.127Z,8.9
2017-03-10T06:16:55.634Z,8.88
2017-03-10T06:18:09.895Z,8.88
2017-03-10T06:19:23.764Z,8.9
2017-03-10T06:20:37.290Z,8.92
2017-03-10T06:21:50.722Z,8.89
2017-03-10T06:23:05.316Z,8.88
2017-03-10T06:24:18.769Z,8.91
2017-03-10T06:25:32.195Z,8.91
2017-03-10T06:26:45.609Z,8.9
2017-03-10T06:28:01.903Z,8.91
2017-03-10T06:29:15.436Z,8.91
2017-03-10T06:30:28.899Z,8.92
2017-03-10T06:31:42.813Z,8.89
2017-03-10T06:32:56.795Z,8.88
2017-03-10T06:34:10.235Z,8.88
2017-03-10T06:35:24.081Z,8.9
2017-03-10T06:36:37.567Z,8.93
2017-03-10T06:37:51.048Z,8.95
2017-03-10T06:39:04.629Z,8.95
2017-03-10T06:40:18.056Z,8.96
2017-03-10T06:41:31.900Z,8.96
2017-03-10T06:42:45.399Z,8.98
2017-03-10T06:43:58.928Z,9
2017-03-10T06:45:12.651Z,9.03
2017-03-10T06:46:26.151Z,9.06
2017-03-10T06:47:40.017Z,9.12
2017-03-10T06:48:53.529Z,9.19
2017-03-10T06:50:07.030Z,9.24
2017-03-10T06:51:20.665Z,9.27
2017-03-10T06:52:34.979Z,9.28
2017-03-10T06:53:48.913Z,9.32
2017-03-10T06:55:04.018Z,9.38
2017-03-10T06:56:17.544Z,9.45
2017-03-10T06:57:31.477Z,9.5
2017-03-10T06:58:44.915Z,9.57
2017-03-10T06:59:58.434Z,9.64
2017-03-10T07:01:12.619Z,9.69
2017-03-10T07:02:26.155Z,9.73
2017-03-10T07:03:39.629Z,9.74
2017-03-10T07:04:53.795Z,9.75
2017-03-10T07:06:07.226Z,9.78
2017-03-10T07:07:21.405Z,9.81
2017-03-10T07:08:34.936Z,9.86
2017-03-10T07:09:48.417Z,9.91
2017-03-10T07:11:01.990Z,9.88
2017-03-10T07:12:15.451Z,9.84
2017-03-10T07:13:28.856Z,9.8
2017-03-10T07:14:42.304Z,9.8
2017-03-10T07:15:55.936Z,9.81
2017-03-10T07:17:09.535Z,9.85
2017-03-10T07:18:23.420Z,9.9
2017-03-10T07:19:36.872Z,9.92
2017-03-10T07:20:50.427Z,9.95
2017-03-10T07:22:03.887Z,9.97
2017-03-10T07:23:17.331Z,10.03
2017-03-10T07:24:31.051Z,10.07
2017-03-10T07:25:44.487Z,10.12
2017-03-10T07:26:58.012Z,10.13
2017-03-10T07:28:11.461Z,10.1
2017-03-10T07:29:24.898Z,10.07
2017-03-10T07:30:38.879Z,10.03
2017-03-10T07:31:52.474Z,9.98
2017-03-10T07:33:05.930Z,9.97
2017-03-10T07:34:19.748Z,9.93
2017-03-10T07:35:33.229Z,9.88
2017-03-10T07:36:46.792Z,9.82
2017-03-10T07:38:00.708Z,9.74
2017-03-10T07:39:14.605Z,9.7
2017-03-10T07:40:28.116Z,9.73
2017-03-10T07:41:41.969Z,9.76
2017-03-10T07:42:55.543Z,9.75
2017-03-10T07:44:11.625Z,9.7
2017-03-10T07:45:25.073Z,9.69
2017-03-10T07:46:38.509Z,9.7
2017-03-10T07:47:52.098Z,9.67
2017-03-10T07:49:05.571Z,9.66
2017-03-10T07:50:19.917Z,9.66
2017-03-10T07:51:33.356Z,9.63
2017-03-10T07:52:46.895Z,9.65
2017-03-10T07:54:00.340Z,9.68
2017-03-10T07:55:13.799Z,9.71
2017-03-10T07:56:27.267Z,9.74
2017-03-10T07:57:40.804Z,9.73
2017-03-10T07:58:54.276Z,9.69
2017-03-10T08:00:08.160Z,9.65
2017-03-10T08:01:21.651Z,9.66
2017-03-10T08:02:35.092Z,9.68
2017-03-10T08:03:48.651Z,9.69
2017-03-10T08:05:02.271Z,9.72
2017-03-10T08:06:15.721Z,9.76
2017-03-10T08:07:29.693Z,9.8
2017-03-10T08:08:43.251Z,9.82
2017-03-10T08:09:56.942Z,9.86
2017-03-10T08:11:10.414Z,9.88
2017-03-10T08:12:23.875Z,9.9
2017-03-10T08:13:37.410Z,9.89
2017-03-10T08:14:51.251Z,9.89
2017-03-10T08:16:05.148Z,9.94
2017-03-10T08:17:19.011Z,9.97
2017-03-10T08:18:32.925Z,10.03
2017-03-10T08:19:46.487Z,10.14
2017-03-10T08:21:38.220Z,10.21
2017-03-10T08:22:51.704Z,10.29
2017-03-10T08:24:05.309Z,10.34
2017-03-10T08:25:19.212Z,10.42
2017-03-10T08:26:32.767Z,10.47
2017-03-10T08:27:46.629Z,10.53
2017-03-10T08:29:00.054Z,10.55
2017-03-10T08:30:13.529Z,10.56
2017-03-10T08:31:26.945Z,10.56
2017-03-10T08:32:41.246Z,10.55
2017-03-10T08:33:54.782Z,10.56
2017-03-10T08:35:08.785Z,10.61
2017-03-10T08:36:22.212Z,10.65
2017-03-10T08:37:35.655Z,10.63
2017-03-10T08:38:49.212Z,10.62
2017-03-10T08:40:02.766Z,10.62
2017-03-10T08:41:16.666Z,10.63
2017-03-10T08:42:30.107Z,10.65
2017-03-10T08:43:43.546Z,10.71
2017-03-10T08:44:57.026Z,10.79
2017-03-10T08:46:10.982Z,10.91
2017-03-10T08:47:24.836Z,11.02
2017-03-10T08:48:39.125Z,11.16
2017-03-10T08:49:53.410Z,11.27
2017-03-10T08:51:07.307Z,11.37
2017-03-10T08:52:20.818Z,11.47
2017-03-10T08:53:35.113Z,11.53
2017-03-10T08:54:48.547Z,11.59
2017-03-10T08:56:02.121Z,11.62
2017-03-10T08:57:15.533Z,11.7
2017-03-10T08:58:29.001Z,11.78
2017-03-10T08:59:42.514Z,11.84
2017-03-10T09:00:58.609Z,11.85
2017-03-10T09:02:12.181Z,11.87
2017-03-10T09:03:25.637Z,11.9
2017-03-10T09:04:39.497Z,11.93
2017-03-10T09:05:52.947Z,11.95
2017-03-10T09:07:06.492Z,11.96
2017-03-10T09:08:19.931Z,11.9
2017-03-10T09:09:33.815Z,11.81
2017-03-10T09:10:47.273Z,11.74
2017-03-10T09:12:00.945Z,11.66
2017-03-10T09:13:14.407Z,11.57
2017-03-10T09:14:27.875Z,11.49
2017-03-10T09:15:41.283Z,11.48
2017-03-10T09:16:54.733Z,11.46
2017-03-10T09:18:08.702Z,11.47
2017-03-10T09:19:22.128Z,11.53
2017-03-10T09:20:35.580Z,11.53
2017-03-10T09:21:49.128Z,11.47
2017-03-10T09:23:02.923Z,11.35
2017-03-10T09:24:16.629Z,11.31
2017-03-10T09:25:30.074Z,11.27
2017-03-10T09:26:43.939Z,11.27
2017-03-10T09:27:57.698Z,11.31
2017-03-10T09:29:11.207Z,11.37
2017-03-10T09:30:24.652Z,11.45
2017-03-10T09:31:38.793Z,11.51
2017-03-10T09:32:52.243Z,11.56
2017-03-10T09:34:05.819Z,11.62
2017-03-10T09:35:19.334Z,11.68
2017-03-10T09:36:32.790Z,11.72
2017-03-10T09:37:46.309Z,11.75
2017-03-10T09:38:59.939Z,11.78
2017-03-10T09:40:13.425Z,11.84
2017-03-10T09:41:26.930Z,11.89
2017-03-10T09:42:40.339Z,11.9
2017-03-10T09:43:54.085Z,11.9
2017-03-10T09:45:07.561Z,11.89
2017-03-10T09:46:21.029Z,11.87
2017-03-10T09:47:34.488Z,11.83
2017-03-10T09:48:48.341Z,11.78
2017-03-10T09:50:01.920Z,11.78
2017-03-10T09:51:15.875Z,11.82
2017-03-10T09:52:29.756Z,11.87
2017-03-10T09:53:43.995Z,11.92
2017-03-10T09:54:57.633Z,11.96
2017-03-10T09:56:11.096Z,11.99
2017-03-10T09:57:24.632Z,11.99
2017-03-10T09:58:38.469Z,12
2017-03-10T09:59:52.000Z,12.01
2017-03-10T10:01:05.469Z,11.99
2017-03-10T10:02:18.922Z,11.88
2017-03-10T10:03:32.449Z,11.75
2017-03-10T10:04:45.918Z,11.64
2017-03-10T10:05:59.462Z,11.62
2017-03-10T10:07:12.909Z,11.62
2017-03-10T10:08:26.753Z,11.66
2017-03-10T10:09:41.010Z,11.71
2017-03-10T10:10:54.600Z,11.78
2017-03-10T10:12:08.085Z,11.88
2017-03-10T10:13:21.981Z,11.94
2017-03-10T10:14:35.419Z,11.98
2017-03-10T10:15:48.943Z,11.99
2017-03-10T10:17:05.021Z,11.93
2017-03-10T10:18:18.480Z,11.89
2017-03-10T10:19:32.332Z,11.93
2017-03-10T10:20:45.839Z,11.97
2017-03-10T10:21:59.329Z,12.02
2017-03-10T10:23:12.831Z,12.06
2017-03-10T10:24:26.289Z,12.11
2017-03-10T10:25:39.718Z,12.11
2017-03-10T10:26:53.237Z,12.13
2017-03-10T10:28:06.693Z,12.16
2017-03-10T10:29:20.194Z,12.2
2017-03-10T10:30:33.657Z,12.24
2017-03-10T10:31:47.172Z,12.28
2017-03-10T10:33:00.987Z,12.35
2017-03-10T10:34:14.418Z,12.37
2017-03-10T10:35:27.886Z,12.41
2017-03-10T10:36:41.784Z,12.42
2017-03-10T10:37:55.321Z,12.38
2017-03-10T10:39:09.366Z,12.31
2017-03-10T10:40:22.901Z,12.28
2017-03-10T10:41:36.806Z,12.26
2017-03-10T10:42:50.250Z,12.28
2017-03-10T10:44:03.703Z,12.3
2017-03-10T10:45:17.283Z,12.29
2017-03-10T10:46:30.830Z,12.27
2017-03-10T10:47:44.292Z,12.28
2017-03-10T10:48:57.990Z,12.29
2017-03-10T10:50:11.649Z,12.35
2017-03-10T10:51:25.529Z,12.45
2017-03-10T10:52:38.972Z,12.54
2017-03-10T10:53:52.521Z,12.65
2017-03-10T10:55:06.484Z,12.78
2017-03-10T10:56:20.035Z,12.89
2017-03-10T10:57:34.016Z,13.01
2017-03-10T10:58:47.473Z,13.1
2017-03-10T11:00:01.030Z,13.15
2017-03-10T11:01:14.795Z,13.24
2017-03-10T11:02:28.768Z,13.34
2017-03-10T11:03:42.622Z,13.42
2017-03-10T11:04:56.227Z,13.49
2017-03-10T11:06:09.777Z,13.52
2017-03-10T11:07:24.132Z,13.52
2017-03-10T11:08:37.799Z,13.49
2017-03-10T11:09:51.284Z,13.45
2017-03-10T11:11:04.966Z,13.43
2017-03-10T11:12:18.529Z,13.44
2017-03-10T11:13:32.899Z,13.46
2017-03-10T11:14:46.499Z,13.49
2017-03-10T11:16:00.367Z,13.48
2017-03-10T11:17:13.935Z,13.48
2017-03-10T11:18:27.928Z,13.46
2017-03-10T11:19:41.524Z,13.45
2017-03-10T11:20:55.053Z,13.45
2017-03-10T11:22:08.541Z,13.46
2017-03-10T11:23:22.045Z,13.44
2017-03-10T11:24:35.945Z,13.44
2017-03-10T11:25:49.429Z,13.43
2017-03-10T11:27:02.991Z,13.44
2017-03-10T11:28:16.891Z,13.44
2017-03-10T11:29:30.798Z,13.44
2017-03-10T11:30:44.300Z,13.45
2017-03-10T11:31:57.809Z,13.48
2017-03-10T11:33:14.035Z,13.51
2017-03-10T11:34:27.798Z,13.54
2017-03-10T11:35:41.745Z,13.6
2017-03-10T11:36:56.920Z,13.69
2017-03-10T11:38:10.792Z,13.76
2017-03-10T11:39:24.330Z,13.8
2017-03-10T11:40:38.072Z,13.85
2017-03-10T11:41:51.679Z,13.91
2017-03-10T11:43:05.717Z,13.94
2017-03-10T11:44:19.744Z,13.93
2017-03-10T11:45:34.127Z,13.92
2017-03-10T11:46:47.639Z,13.89
2017-03-10T11:48:01.841Z,13.87
2017-03-10T11:49:15.657Z,13.85
2017-03-10T11:50:30.001Z,13.85
2017-03-10T11:51:44.403Z,13.86
2017-03-10T11:52:57.936Z,13.87
2017-03-10T11:54:12.464Z,13.86
2017-03-10T11:55:26.960Z,13.86
2017-03-10T11:56:40.709Z,13.83
2017-03-10T11:57:54.205Z,13.79
2017-03-10T11:59:08.425Z,13.75
2017-03-10T12:00:22.136Z,13.76
2017-03-10T12:01:36.060Z,13.78
2017-03-10T12:02:49.606Z,13.8
2017-03-10T12:04:03.546Z,13.79
2017-03-10T12:05:17.077Z,13.82
2017-03-10T12:06:31.324Z,13.84
2017-03-10T12:07:45.775Z,13.85
2017-03-10T12:08:59.298Z,13.87
2017-03-10T12:10:13.416Z,13.86
2017-03-10T12:11:27.738Z,13.86
2017-03-10T12:12:41.866Z,13.87
2017-03-10T12:13:56.062Z,13.89
2017-03-10T12:15:10.260Z,13.89
2017-03-10T12:16:23.877Z,13.91
2017-03-10T12:17:37.898Z,13.94
2017-03-10T12:18:52.084Z,13.92
2017-03-10T12:20:06.478Z,13.9
2017-03-10T12:21:19.952Z,13.88
2017-03-10T12:22:34.019Z,13.89
2017-03-10T12:23:48.519Z,13.91
2017-03-10T12:25:02.068Z,13.93
2017-03-10T12:26:15.873Z,13.98
2017-03-10T12:27:29.396Z,14.01
2017-03-10T12:28:42.871Z,14.03
2017-03-10T12:29:56.358Z,14.03
2017-03-10T12:31:10.006Z,14.02
2017-03-10T12:32:23.768Z,14.04
2017-03-10T12:33:37.666Z,14.06
2017-03-10T12:34:51.553Z,14.1
2017-03-10T12:36:05.193Z,14.15
2017-03-10T12:37:18.658Z,14.21
2017-03-10T12:38:32.504Z,14.27
2017-03-10T12:40:05.256Z,14.32
2017-03-10T12:41:18.708Z,14.35
2017-03-10T12:42:32.333Z,14.34
2017-03-10T12:43:46.091Z,14.31
2017-03-10T12:44:59.534Z,14.3
2017-03-10T12:46:13.124Z,14.33
2017-03-10T12:47:26.559Z,14.36
2017-03-10T12:48:40.074Z,14.38
2017-03-10T12:49:56.004Z,14.4
2017-03-10T12:51:09.563Z,14.45
2017-03-10T12:52:23.023Z,14.48
2017-03-10T12:53:36.478Z,14.48
2017-03-10T12:54:50.133Z,14.44
2017-03-10T12:56:05.128Z,14.37
2017-03-10T12:57:18.601Z,14.34
2017-03-10T12:58:32.075Z,14.35
2017-03-10T12:59:45.926Z,14.34
2017-03-10T13:00:59.828Z,14.34
2017-03-10T13:02:13.762Z,14.31
2017-03-10T13:03:27.624Z,14.3
2017-03-10T13:04:41.485Z,14.31
2017-03-10T13:05:55.406Z,14.32
2017-03-10T13:07:09.005Z,14.36
2017-03-10T13:08:22.789Z,14.4
2017-03-10T13:09:36.419Z,14.45
2017-03-10T13:10:50.770Z,14.48
2017-03-10T13:12:05.182Z,14.51
2017-03-10T13:13:18.732Z,14.51
2017-03-10T13:14:32.976Z,14.54
2017-03-10T13:15:47.441Z,14.57
2017-03-10T13:17:01.483Z,14.6
2017-03-10T13:18:15.174Z,14.62
2017-03-10T13:19:29.413Z,14.58
2017-03-10T13:20:43.221Z,14.57
2017-03-10T13:21:56.702Z,14.52
2017-03-10T13:23:10.766Z,14.48
2017-03-10T13:24:24.308Z,14.48
2017-03-10T13:25:37.807Z,14.5
2017-03-10T13:26:51.542Z,14.51
2017-03-10T13:28:05.244Z,14.53
2017-03-10T13:29:19.136Z,14.56
2017-03-10T13:30:33.041Z,14.59
2017-03-10T13:31:46.539Z,14.62
2017-03-10T13:33:00.748Z,14.67
2017-03-10T13:34:14.888Z,14.73
2017-03-10T13:35:28.360Z,14.75
2017-03-10T13:36:41.826Z,14.76
2017-03-10T13:37:55.338Z,14.76
2017-03-10T13:39:09.273Z,14.75
2017-03-10T13:40:22.898Z,14.76
2017-03-10T13:41:36.408Z,14.75
2017-03-10T13:42:49.935Z,14.75
2017-03-10T13:44:03.512Z,14.76
2017-03-10T13:45:17.266Z,14.78
2017-03-10T13:46:30.704Z,14.81
2017-03-10T13:47:44.613Z,14.84
2017-03-10T13:48:58.098Z,14.89
2017-03-10T13:50:11.713Z,14.94
2017-03-10T13:51:25.441Z,14.98
2017-03-10T13:52:39.313Z,15.02
2017-03-10T13:53:52.760Z,15.05
2017-03-10T13:55:06.768Z,15.08
2017-03-10T13:56:20.230Z,15.12
2017-03-10T13:57:34.460Z,15.11
2017-03-10T13:58:47.911Z,15.1
2017-03-10T14:00:02.339Z,15.09
2017-03-10T14:01:15.817Z,15.07
2017-03-10T14:02:29.972Z,15.02
2017-03-10T14:03:44.205Z,14.99
2017-03-10T14:04:58.364Z,14.98
2017-03-10T14:06:14.057Z,14.93
2017-03-10T14:07:27.525Z,14.89
2017-03-10T14:08:40.976Z,14.85
2017-03-10T14:09:54.471Z,14.85
2017-03-10T14:11:08.514Z,14.83
2017-03-10T14:12:22.413Z,14.86
2017-03-10T14:13:35.865Z,14.87
2017-03-10T14:14:49.373Z,14.87
2017-03-10T14:16:03.231Z,14.86
2017-03-10T14:17:16.718Z,14.85
2017-03-10T14:18:30.217Z,14.84
2017-03-10T14:19:44.721Z,14.85
2017-03-10T14:20:58.611Z,14.85
2017-03-10T14:22:13.195Z,14.84
2017-03-10T14:23:26.684Z,14.83
2017-03-10T14:24:40.199Z,14.81
2017-03-10T14:25:53.746Z,14.78
2017-03-10T14:27:07.467Z,14.8
2017-03-10T14:28:22.065Z,14.82
2017-03-10T14:29:35.561Z,14.85
2017-03-10T14:30:49.005Z,14.87
2017-03-10T14:32:02.835Z,14.92
2017-03-10T14:33:16.713Z,14.94
2017-03-10T14:37:21.207Z,15.07
2017-03-10T14:38:34.706Z,15.13
2017-03-10T14:39:48.436Z,15.19
2017-03-10T14:41:01.905Z,15.26
2017-03-10T14:42:15.924Z,15.32
2017-03-10T14:43:29.427Z,15.36
2017-03-10T14:44:42.878Z,15.39
2017-03-10T14:45:56.640Z,15.43
2017-03-10T14:47:10.704Z,15.46
2017-03-10T14:48:24.388Z,15.44
2017-03-10T14:49:37.816Z,15.44
2017-03-10T14:50:51.320Z,15.41
2017-03-10T14:52:05.086Z,15.4
2017-03-10T14:53:18.699Z,15.38
2017-03-10T14:54:32.151Z,15.36
2017-03-10T14:55:46.143Z,15.34
2017-03-10T14:56:59.640Z,15.32
2017-03-10T14:58:13.995Z,15.29
2017-03-10T14:59:27.911Z,15.27
2017-03-10T15:00:41.784Z,15.29
2017-03-10T15:01:55.235Z,15.29
2017-03-10T15:03:08.768Z,15.29
2017-03-10T15:04:22.637Z,15.29
2017-03-10T15:05:36.073Z,15.24
2017-03-10T15:06:49.617Z,15.21
2017-03-10T15:08:03.554Z,15.23
2017-03-10T15:09:18.235Z,15.27
2017-03-10T15:10:32.094Z,15.32
2017-03-10T15:11:45.555Z,15.38
2017-03-10T15:12:59.851Z,15.44
2017-03-10T15:14:15.075Z,15.48
2017-03-10T15:15:29.060Z,15.5
2017-03-10T15:16:43.027Z,15.5
2017-03-10T15:17:56.505Z,15.49
2017-03-10T15:19:10.053Z,15.46
2017-03-10T15:20:23.554Z,15.43
2017-03-10T15:21:37.537Z,15.41
2017-03-10T15:23:04.130Z,15.43
2017-03-10T15:24:19.896Z,15.45
2017-03-10T15:25:34.629Z,15.49
2017-03-10T15:26:49.050Z,15.53
2017-03-10T15:28:02.480Z,15.54
2017-03-10T15:29:16.016Z,15.51
2017-03-10T15:30:30.460Z,15.44
2017-03-10T15:31:43.958Z,15.33
2017-03-10T15:32:57.378Z,15.23
2017-03-10T15:34:11.552Z,15.13
2017-03-10T15:35:25.214Z,15.04
2017-03-10T15:36:39.104Z,14.96
2017-03-10T15:37:52.591Z,14.92
2017-03-10T15:39:06.256Z,14.91
2017-03-10T15:40:20.198Z,14.92
2017-03-10T15:41:33.676Z,14.92
2017-03-10T15:42:47.651Z,14.93
2017-03-10T15:44:26.917Z,14.95
2017-03-10T15:45:40.828Z,14.98
2017-03-10T15:46:54.823Z,15.02
2017-03-10T15:48:08.317Z,15.07
2017-03-10T15:49:22.236Z,15.11
2017-03-10T15:50:36.002Z,15.14
2017-03-10T15:51:49.503Z,15.19
2017-03-10T15:53:03.379Z,15.2
2017-03-10T15:54:16.863Z,15.22
2017-03-10T15:55:30.386Z,15.23
2017-03-10T15:56:44.451Z,15.23
2017-03-10T16:01:17.636Z,15.23
2017-03-10T16:02:31.102Z,15.24
2017-03-10T16:03:44.981Z,15.24
2017-03-10T16:04:58.452Z,15.25
2017-03-10T16:06:12.465Z,15.22
2017-03-10T16:07:26.386Z,15.11
2017-03-10T16:08:40.307Z,14.99
2017-03-10T16:09:54.843Z,14.9
2017-03-10T16:11:08.314Z,14.83
2017-03-10T16:12:21.871Z,14.75
2017-03-10T16:13:35.718Z,14.69
2017-03-10T16:14:49.618Z,14.59
2017-03-10T16:16:03.098Z,14.51
2017-03-10T16:17:17.793Z,14.34
2017-03-10T16:18:32.259Z,14.21
2017-03-10T16:19:45.978Z,14.1
2017-03-10T16:21:01.984Z,14.02
2017-03-10T16:22:25.770Z,14